Time;durP1;ratioP1;P1;durP2;ratioP2;P2;SDS_P1;SDS_P2;PMS_P1;PMS_P2;Temp;Humidity;BMP_temperature;BMP_pressure;BME280_temperature;BME280_humidity;BME280_pressure;Samples;Min_cycle;Max_cycle;Signal;HPM_P1;HPM_P2
2022/04/24 00:02:04;;;;;;;4.60;3.28;;;6.30;99.90;;;;;;5034405;28;20542;-66
2022/04/24 00:04:31;;;;;;;7.22;2.95;;;6.30;99.90;;;;;;5028441;28;20113;-64
2022/04/24 00:06:58;;;;;;;6.35;3.22;;;6.30;99.90;;;;;;5044807;28;20127;-67
2022/04/24 00:09:25;;;;;;;3.97;3.53;;;6.30;99.90;;;;;;5045909;28;20048;-65
2022/04/24 00:11:52;;;;;;;7.15;2.97;;;6.20;99.90;;;;;;5027145;28;20049;-65
2022/04/24 00:14:19;;;;;;;6.60;3.03;;;6.20;99.90;;;;;;5042921;28;20139;-67
2022/04/24 00:16:46;;;;;;;3.97;3.33;;;6.20;99.90;;;;;;5037914;28;20041;-65
2022/04/24 00:19:15;;;;;;;3.85;3.20;;;6.20;99.90;;;;;;5036654;28;20038;-63
2022/04/24 00:21:42;;;;;;;4.38;3.20;;;6.20;99.90;;;;;;5044404;28;20063;-65
2022/04/24 00:24:09;;;;;;;6.05;3.60;;;6.10;99.90;;;;;;5036027;28;20045;-64
2022/04/24 00:26:37;;;;;;;6.57;3.08;;;6.10;99.90;;;;;;5027601;28;20037;-65
2022/04/24 00:29:04;;;;;;;7.05;2.92;;;6.10;99.90;;;;;;5028084;28;20565;-64
2022/04/24 00:31:32;;;;;;;4.63;2.63;;;6.00;99.90;;;;;;5038442;28;20135;-67
2022/04/24 00:33:59;;;;;;;9.68;2.90;;;6.00;99.90;;;;;;5030651;28;20219;-65
2022/04/24 00:36:26;;;;;;;4.53;2.97;;;5.90;99.90;;;;;;5028977;28;20048;-67
2022/04/24 00:38:53;;;;;;;5.80;4.07;;;5.90;99.90;;;;;;5031858;28;20047;-65
2022/04/24 00:41:20;;;;;;;9.35;4.85;;;5.90;99.90;;;;;;5035539;28;20052;-64
2022/04/24 00:43:52;;;;;;;8.20;3.47;;;5.80;99.90;;;;;;5026459;28;20042;-65
2022/04/24 00:46:59;;;;;;;3.72;2.78;;;5.80;99.90;;;;;;5024945;28;20056;-65
2022/04/24 00:49:26;;;;;;;4.50;3.13;;;5.80;99.90;;;;;;5023777;28;20125;-64
2022/04/24 00:51:53;;;;;;;3.15;2.63;;;5.70;99.90;;;;;;5033684;28;20827;-64
2022/04/24 00:54:20;;;;;;;4.20;2.83;;;5.70;99.90;;;;;;5022082;28;20942;-66
2022/04/24 00:56:47;;;;;;;4.38;3.40;;;5.70;99.90;;;;;;5043950;28;20063;-67
2022/04/24 00:59:15;;;;;;;8.10;3.80;;;5.70;99.90;;;;;;5028276;28;20091;-66
2022/04/24 01:01:42;;;;;;;6.55;4.18;;;5.60;99.90;;;;;;5030732;28;20133;-66
2022/04/24 01:04:11;;;;;;;4.28;2.70;;;5.60;99.90;;;;;;5034227;28;20041;-68
2022/04/24 01:06:42;;;;;;;4.53;2.75;;;5.60;99.90;;;;;;5067087;28;20029;-65
2022/04/24 01:09:17;;;;;;;5.15;3.47;;;5.60;99.90;;;;;;5042740;28;20033;-68
2022/04/24 01:11:56;;;;;;;3.67;2.60;;;5.60;99.90;;;;;;5044155;28;20049;-65
2022/04/24 01:14:25;;;;;;;6.82;2.53;;;5.50;99.90;;;;;;5039391;28;20099;-67
2022/04/24 01:16:52;;;;;;;6.47;3.25;;;5.50;99.90;;;;;;5030088;28;20129;-66
2022/04/24 01:19:20;;;;;;;5.75;2.80;;;5.50;99.90;;;;;;5025215;28;20049;-65
2022/04/24 01:21:49;;;;;;;4.80;2.55;;;5.50;99.90;;;;;;5038142;28;20127;-70
2022/04/24 01:24:21;;;;;;;6.93;3.63;;;5.40;99.90;;;;;;5040456;28;20048;-64
2022/04/24 01:26:48;;;;;;;5.13;2.88;;;5.40;99.90;;;;;;5035036;28;20136;-64
2022/04/24 01:29:16;;;;;;;3.50;2.65;;;5.30;99.90;;;;;;5030395;28;20106;-67
2022/04/24 01:31:45;;;;;;;5.60;3.25;;;5.30;99.90;;;;;;5026530;28;20396;-63
2022/04/24 01:34:12;;;;;;;7.60;3.83;;;5.30;99.90;;;;;;5025917;28;20050;-71
2022/04/24 01:36:39;;;;;;;7.55;4.72;;;5.20;99.90;;;;;;5036029;28;20132;-69
2022/04/24 01:39:07;;;;;;;5.70;3.63;;;5.20;99.90;;;;;;5037054;28;20045;-64
2022/04/24 01:41:34;;;;;;;4.90;3.67;;;5.20;99.90;;;;;;5048817;28;20566;-69
2022/04/24 01:44:02;;;;;;;6.25;2.97;;;5.20;99.90;;;;;;5035232;28;20140;-66
2022/04/24 01:46:29;;;;;;;9.90;4.15;;;5.20;99.90;;;;;;5049546;28;20079;-64
2022/04/24 01:48:56;;;;;;;7.18;3.38;;;5.20;99.90;;;;;;5049076;28;20053;-67
2022/04/24 01:51:23;;;;;;;5.47;4.07;;;5.20;99.90;;;;;;5044754;28;20067;-63
2022/04/24 01:53:50;;;;;;;4.53;3.50;;;5.10;99.90;;;;;;5036546;28;20037;-67
2022/04/24 01:56:16;;;;;;;6.25;3.67;;;5.20;99.90;;;;;;5038854;28;20127;-64
2022/04/24 01:58:43;;;;;;;7.45;4.70;;;5.10;99.90;;;;;;5035855;28;20104;-64
2022/04/24 02:01:10;;;;;;;5.85;3.63;;;5.10;99.90;;;;;;5042786;28;20032;-63
2022/04/24 02:03:37;;;;;;;4.55;3.47;;;5.10;99.90;;;;;;5029953;28;20098;-64
2022/04/24 02:06:05;;;;;;;3.80;3.33;;;5.00;99.90;;;;;;5033518;28;20048;-67
2022/04/24 02:08:35;;;;;;;5.28;3.63;;;5.00;99.90;;;;;;5030556;28;20045;-66
2022/04/24 02:11:04;;;;;;;6.47;3.67;;;5.00;99.90;;;;;;5044765;28;20452;-66
2022/04/24 02:13:31;;;;;;;6.00;3.80;;;4.90;99.90;;;;;;5028589;28;20041;-67
2022/04/24 02:15:58;;;;;;;5.50;4.03;;;5.00;99.90;;;;;;5035475;28;20429;-64
2022/04/24 02:18:25;;;;;;;5.43;3.60;;;4.90;99.90;;;;;;5033768;28;20995;-66
2022/04/24 02:20:52;;;;;;;8.32;3.55;;;4.90;99.90;;;;;;5037935;28;20215;-64
2022/04/24 02:23:18;;;;;;;8.93;4.30;;;4.90;99.90;;;;;;5038562;28;20893;-66
2022/04/24 02:25:45;;;;;;;6.75;3.60;;;4.80;99.90;;;;;;5035240;28;20059;-66
2022/04/24 02:28:12;;;;;;;4.15;2.80;;;4.80;99.90;;;;;;5042096;28;20461;-64
2022/04/24 02:30:39;;;;;;;9.27;3.65;;;4.80;99.90;;;;;;5041283;28;20075;-66
2022/04/24 02:33:06;;;;;;;4.45;3.47;;;4.80;99.90;;;;;;5041401;28;20132;-64
2022/04/24 02:35:33;;;;;;;5.38;3.47;;;4.80;99.90;;;;;;5053372;28;20128;-63
2022/04/24 02:38:00;;;;;;;6.90;3.03;;;4.80;99.90;;;;;;5031098;28;20045;-64
2022/04/24 02:40:27;;;;;;;5.75;2.83;;;4.80;99.90;;;;;;5031687;28;20160;-64
2022/04/24 02:42:55;;;;;;;4.40;2.85;;;4.80;99.90;;;;;;5039834;28;20095;-65
2022/04/24 02:45:22;;;;;;;7.78;3.45;;;4.80;99.90;;;;;;5033254;28;20128;-65
2022/04/24 02:47:49;;;;;;;4.70;3.00;;;4.80;99.90;;;;;;5028495;28;20471;-65
2022/04/24 02:50:16;;;;;;;3.95;2.60;;;4.70;99.90;;;;;;5029400;28;20160;-67
2022/04/24 02:52:54;;;;;;;5.70;2.60;;;4.70;99.90;;;;;;5029755;28;20737;-69
2022/04/24 02:55:23;;;;;;;6.45;3.67;;;4.80;99.90;;;;;;5034177;28;20418;-70
2022/04/24 02:57:50;;;;;;;7.95;2.92;;;4.70;99.90;;;;;;5034096;28;20046;-63
2022/04/24 03:00:22;;;;;;;5.82;2.83;;;4.70;99.90;;;;;;5031108;28;20428;-64
2022/04/24 03:02:49;;;;;;;5.35;2.67;;;4.70;99.90;;;;;;5037980;28;20122;-66
2022/04/24 03:05:21;;;;;;;3.75;2.63;;;4.70;99.90;;;;;;5038310;28;20040;-70
2022/04/24 03:07:48;;;;;;;2.90;2.40;;;4.70;99.90;;;;;;5034249;28;20141;-64
2022/04/24 03:10:19;;;;;;;4.70;2.85;;;4.70;99.90;;;;;;5042608;28;20810;-67
2022/04/24 03:12:46;;;;;;;;;;;4.60;99.90;;;;;;5040749;28;20526;-66
2022/04/24 03:15:14;;;;;;;5.82;2.28;;;4.60;99.90;;;;;;5045870;28;20231;-65
2022/04/24 03:17:42;;;;;;;6.78;3.13;;;4.60;99.90;;;;;;5040413;28;20049;-67
2022/04/24 03:20:11;;;;;;;6.45;3.22;;;4.60;99.90;;;;;;5041751;28;20414;-66
2022/04/24 03:22:39;;;;;;;4.10;2.83;;;4.60;99.90;;;;;;5034903;28;20116;-64
2022/04/24 03:25:09;;;;;;;3.45;2.35;;;4.60;99.90;;;;;;5038759;28;20136;-65
2022/04/24 03:27:36;;;;;;;5.85;3.13;;;4.60;99.90;;;;;;5036599;28;20132;-65
2022/04/24 03:30:03;;;;;;;5.60;1.75;;;4.60;99.90;;;;;;5043265;28;20102;-70
2022/04/24 03:32:32;;;;;;;4.60;2.70;;;4.60;99.90;;;;;;5029704;28;20637;-64
2022/04/24 03:34:59;;;;;;;5.07;2.65;;;4.70;99.90;;;;;;5036187;28;20029;-66
2022/04/24 03:37:26;;;;;;;4.90;2.70;;;4.70;99.90;;;;;;5044235;28;20125;-65
2022/04/24 03:39:53;;;;;;;4.65;2.40;;;4.70;99.90;;;;;;5037704;28;20064;-65
2022/04/24 03:42:21;;;;;;;4.60;3.15;;;4.70;99.90;;;;;;5039138;28;20042;-66
2022/04/24 03:44:48;;;;;;;6.40;2.85;;;4.70;99.90;;;;;;5037616;28;20056;-67
2022/04/24 03:47:15;;;;;;;4.22;2.75;;;4.70;99.90;;;;;;5044302;28;20153;-64
2022/04/24 03:49:42;;;;;;;5.38;2.60;;;4.70;99.90;;;;;;5036152;28;20363;-64
2022/04/24 03:52:11;;;;;;;4.55;2.38;;;4.70;99.90;;;;;;5039070;28;20600;-68
2022/04/24 03:54:38;;;;;;;5.15;2.88;;;4.70;99.90;;;;;;5038380;28;20044;-65
2022/04/24 03:57:06;;;;;;;6.22;3.03;;;4.80;99.90;;;;;;5040741;28;20099;-68
2022/04/24 03:59:33;;;;;;;7.50;2.88;;;4.70;99.90;;;;;;5044461;28;20060;-65
2022/04/24 04:02:00;;;;;;;3.47;2.72;;;4.80;99.90;;;;;;5042399;28;20041;-65
2022/04/24 04:04:28;;;;;;;3.83;3.17;;;4.80;99.90;;;;;;5035179;28;20136;-64
2022/04/24 04:06:55;;;;;;;4.65;3.10;;;4.80;99.90;;;;;;5036576;28;20143;-65
2022/04/24 04:09:23;;;;;;;5.30;3.13;;;4.80;99.90;;;;;;5040755;28;20124;-66
2022/04/24 04:11:50;;;;;;;2.78;2.17;;;4.80;99.90;;;;;;5034694;28;20137;-64
2022/04/24 04:14:17;;;;;;;4.45;3.53;;;4.90;99.90;;;;;;5054747;28;20069;-69
2022/04/24 04:16:45;;;;;;;4.10;2.33;;;4.90;99.90;;;;;;5038051;28;20042;-67
2022/04/24 04:19:12;;;;;;;4.55;2.85;;;4.90;99.90;;;;;;5040765;28;20376;-67
2022/04/24 04:21:39;;;;;;;5.97;2.83;;;4.90;99.90;;;;;;5034180;28;20544;-68
2022/04/24 04:24:08;;;;;;;5.38;3.40;;;4.90;99.90;;;;;;5036002;28;20136;-66
2022/04/24 04:26:35;;;;;;;3.42;2.65;;;4.90;99.90;;;;;;5043834;28;20099;-67
2022/04/24 04:29:03;;;;;;;4.70;2.65;;;5.00;99.90;;;;;;5050483;28;20144;-65
2022/04/24 04:31:30;;;;;;;3.47;2.45;;;5.00;99.90;;;;;;5029224;28;20126;-64
2022/04/24 04:33:57;;;;;;;5.80;2.22;;;5.00;99.90;;;;;;5027824;28;20061;-66
2022/04/24 04:36:23;;;;;;;7.57;2.42;;;5.00;99.90;;;;;;5026113;28;20132;-64
2022/04/24 04:38:50;;;;;;;4.75;2.28;;;5.00;99.90;;;;;;5046168;28;20145;-64
2022/04/24 04:41:17;;;;;;;11.38;3.97;;;5.10;99.90;;;;;;5032423;28;20048;-69
2022/04/24 04:43:44;;;;;;;9.25;3.22;;;5.10;99.90;;;;;;5031512;28;20041;-65
2022/04/24 04:46:11;;;;;;;3.65;2.00;;;5.10;99.90;;;;;;5032657;28;20198;-63
2022/04/24 04:48:38;;;;;;;4.20;2.25;;;5.20;99.90;;;;;;5032337;28;20529;-63
2022/04/24 04:51:05;;;;;;;3.50;1.33;;;5.20;99.90;;;;;;5028459;28;20152;-68
2022/04/24 04:53:32;;;;;;;4.25;1.90;;;5.20;99.90;;;;;;5032135;28;20045;-70
2022/04/24 04:55:59;;;;;;;4.68;2.30;;;5.30;99.90;;;;;;5030339;28;20051;-65
2022/04/24 04:58:26;;;;;;;4.43;2.55;;;5.30;99.90;;;;;;5024704;28;20041;-64
2022/04/24 05:00:53;;;;;;;5.35;2.72;;;5.30;99.90;;;;;;5029248;28;20127;-65
2022/04/24 05:03:20;;;;;;;2.40;1.83;;;5.40;99.90;;;;;;5028167;28;20372;-63
2022/04/24 05:05:47;;;;;;;4.40;2.08;;;5.50;99.90;;;;;;5028891;28;20472;-64
2022/04/24 05:08:13;;;;;;;3.60;1.80;;;5.50;99.90;;;;;;5028467;28;20047;-70
2022/04/24 05:10:40;;;;;;;4.03;1.90;;;5.50;99.90;;;;;;5027188;28;20450;-70
2022/04/24 05:13:07;;;;;;;5.65;2.45;;;5.50;99.90;;;;;;5027885;28;20042;-69
2022/04/24 05:15:34;;;;;;;4.57;2.25;;;5.60;99.90;;;;;;5029451;28;20124;-68
2022/04/24 05:18:01;;;;;;;4.22;2.03;;;5.60;99.90;;;;;;5038922;28;20106;-69
2022/04/24 05:20:28;;;;;;;12.25;1.77;;;5.70;99.90;;;;;;5033107;28;20133;-66
2022/04/24 05:23:06;;;;;;;4.20;2.40;;;5.70;99.90;;;;;;5030363;28;20045;-67
2022/04/24 05:25:34;;;;;;;4.25;1.85;;;5.70;99.90;;;;;;5032870;28;20065;-68
2022/04/24 05:28:01;;;;;;;7.22;2.50;;;5.70;99.90;;;;;;5033360;28;20038;-67
2022/04/24 05:30:29;;;;;;;5.25;2.28;;;5.80;99.90;;;;;;5025296;28;20237;-63
2022/04/24 05:32:58;;;;;;;5.47;2.17;;;5.80;99.90;;;;;;5032387;28;20041;-69
2022/04/24 05:35:25;;;;;;;3.42;1.88;;;5.80;99.90;;;;;;5032036;28;20135;-65
2022/04/24 05:37:52;;;;;;;4.05;1.90;;;5.80;99.90;;;;;;5033139;28;20495;-66
2022/04/24 05:40:19;;;;;;;3.65;1.92;;;5.90;99.90;;;;;;5026219;28;20053;-69
2022/04/24 05:42:54;;;;;;;4.13;2.35;;;5.90;99.90;;;;;;5029176;28;20140;-67
2022/04/24 05:45:24;;;;;;;3.03;1.65;;;5.90;99.90;;;;;;5029169;28;20352;-71
2022/04/24 05:47:55;;;;;;;5.82;2.20;;;6.00;99.90;;;;;;5031078;28;20073;-69
2022/04/24 05:50:24;;;;;;;6.72;2.97;;;6.00;99.90;;;;;;5031302;28;20092;-67
2022/04/24 05:52:55;;;;;;;6.47;2.70;;;6.00;99.90;;;;;;5031309;28;20127;-65
2022/04/24 05:55:23;;;;;;;4.70;2.05;;;6.00;99.90;;;;;;5023774;28;20045;-66
2022/04/24 05:57:50;;;;;;;2.22;1.73;;;6.00;99.90;;;;;;5030360;28;21464;-67
2022/04/24 06:00:17;;;;;;;13.48;2.92;;;6.10;99.90;;;;;;5030281;28;20140;-65
2022/04/24 06:02:53;;;;;;;3.92;1.67;;;6.10;99.90;;;;;;5036379;28;20148;-65
2022/04/24 06:05:21;;;;;;;;;;;6.10;99.90;;;;;;5030082;28;20041;-64
2022/04/24 06:07:48;;;;;;;6.22;2.28;;;6.20;99.90;;;;;;5034540;28;19960;-65
2022/04/24 06:10:15;;;;;;;3.35;2.05;;;6.10;99.90;;;;;;5029107;28;20051;-64
2022/04/24 06:12:53;;;;;;;10.43;2.20;;;6.10;99.90;;;;;;5032927;28;20514;-64
2022/04/24 06:15:24;;;;;;;7.25;2.55;;;6.20;99.90;;;;;;5039618;28;20360;-65
2022/04/24 06:17:53;;;;;;;10.57;2.40;;;6.20;99.90;;;;;;5034729;28;20045;-63
2022/04/24 06:20:21;;;;;;;7.30;2.60;;;6.20;99.90;;;;;;5025743;28;20052;-69
2022/04/24 06:22:53;;;;;;;6.35;2.20;;;6.30;99.90;;;;;;5031790;28;20136;-66
2022/04/24 06:25:23;;;;;;;5.57;2.80;;;6.30;99.90;;;;;;5034229;28;20037;-64
2022/04/24 06:27:51;;;;;;;6.80;1.58;;;6.30;99.90;;;;;;5035182;28;20496;-68
2022/04/24 06:30:23;;;;;;;5.18;1.98;;;6.30;99.90;;;;;;5033776;28;20176;-70
2022/04/24 06:32:50;;;;;;;5.32;2.20;;;6.30;99.90;;;;;;5036591;28;20068;-67
2022/04/24 06:35:18;;;;;;;5.22;1.67;;;6.40;99.90;;;;;;5036479;28;20053;-69
2022/04/24 06:37:47;;;;;;;4.28;2.25;;;6.40;99.90;;;;;;5034733;28;20480;-66
2022/04/24 06:40:15;;;;;;;7.90;2.60;;;6.50;99.90;;;;;;5030162;28;20064;-64
2022/04/24 06:42:49;;;;;;;5.20;2.03;;;6.50;99.90;;;;;;5034239;28;20497;-66
2022/04/24 06:45:20;;;;;;;6.05;1.83;;;6.50;99.90;;;;;;5040884;28;20048;-67
2022/04/24 06:47:47;;;;;;;;;;;6.60;99.90;;;;;;5036312;28;20079;-67
2022/04/24 06:50:13;;;;;;;4.97;1.90;;;6.60;99.90;;;;;;5034722;28;19917;-65
2022/04/24 06:52:40;;;;;;;3.10;2.55;;;6.60;99.90;;;;;;5043667;28;20064;-64
2022/04/24 06:55:08;;;;;;;4.18;2.47;;;6.70;99.90;;;;;;5033622;28;20850;-65
2022/04/24 06:57:34;;;;;;;4.80;1.73;;;6.60;99.90;;;;;;5038424;28;20137;-68
2022/04/24 07:00:02;;;;;;;4.10;1.98;;;6.70;99.90;;;;;;5038222;28;20120;-65
2022/04/24 07:02:29;;;;;;;17.20;3.25;;;6.70;99.90;;;;;;5036322;28;20120;-65
2022/04/24 07:04:56;;;;;;;6.18;2.60;;;6.80;99.90;;;;;;5035466;28;20041;-66
2022/04/24 07:07:22;;;;;;;6.15;1.83;;;6.70;99.90;;;;;;5036395;28;20609;-67
2022/04/24 07:09:49;;;;;;;2.97;2.53;;;6.80;99.90;;;;;;5041368;28;20040;-65
2022/04/24 07:12:16;;;;;;;7.20;2.85;;;6.80;99.90;;;;;;5042509;28;20043;-67
2022/04/24 07:14:43;;;;;;;6.38;3.20;;;6.90;99.90;;;;;;5039195;28;20124;-68
2022/04/24 07:17:10;;;;;;;5.28;1.55;;;7.00;99.90;;;;;;5034765;28;20041;-64
2022/04/24 07:19:37;;;;;;;13.82;2.30;;;6.90;99.90;;;;;;5034023;28;20041;-67
2022/04/24 07:22:04;;;;;;;11.60;2.05;;;6.90;99.90;;;;;;5032871;28;20065;-68
2022/04/24 07:24:31;;;;;;;5.65;2.28;;;6.90;99.90;;;;;;5040674;28;20037;-64
2022/04/24 07:26:58;;;;;;;15.63;2.75;;;6.90;99.90;;;;;;5041021;28;20107;-64
2022/04/24 07:29:24;;;;;;;6.78;1.73;;;7.00;99.90;;;;;;5044167;28;20045;-65
2022/04/24 07:31:51;;;;;;;1.48;1.30;;;7.00;99.90;;;;;;5045453;28;20550;-68
2022/04/24 07:34:18;;;;;;;5.13;1.98;;;7.00;99.90;;;;;;5041874;28;20083;-69
2022/04/24 07:36:45;;;;;;;3.28;1.63;;;7.10;99.90;;;;;;5052392;28;20048;-70
2022/04/24 07:39:14;;;;;;;2.25;1.73;;;7.10;99.90;;;;;;5038287;28;20148;-69
2022/04/24 07:41:41;;;;;;;2.30;1.48;;;7.10;99.90;;;;;;5043663;28;20049;-67
2022/04/24 07:44:07;;;;;;;5.97;1.40;;;7.20;99.90;;;;;;5047338;28;20046;-65
2022/04/24 07:46:39;;;;;;;6.40;2.83;;;7.20;99.90;;;;;;5046237;28;20044;-66
2022/04/24 07:49:06;;;;;;;5.30;1.88;;;7.20;99.90;;;;;;5045337;28;20041;-67
2022/04/24 07:51:33;;;;;;;3.53;2.00;;;7.30;99.90;;;;;;5052699;28;20045;-64
2022/04/24 07:54:00;;;;;;;2.20;1.52;;;7.30;99.90;;;;;;5040589;28;20041;-69
2022/04/24 07:56:27;;;;;;;3.40;2.05;;;7.30;99.90;;;;;;5044722;28;20416;-67
2022/04/24 07:58:54;;;;;;;6.47;1.98;;;7.40;99.90;;;;;;5034864;28;20084;-66
2022/04/24 08:01:20;;;;;;;2.63;1.70;;;7.40;99.90;;;;;;5039054;28;20897;-67
2022/04/24 08:03:48;;;;;;;1.55;1.38;;;7.40;99.90;;;;;;5040286;28;20049;-64
2022/04/24 08:06:15;;;;;;;5.00;1.92;;;7.40;99.90;;;;;;5041570;28;20145;-64
2022/04/24 08:08:42;;;;;;;4.60;2.05;;;7.40;99.90;;;;;;5045263;28;20041;-63
2022/04/24 08:11:09;;;;;;;2.47;1.73;;;7.50;99.90;;;;;;5049273;28;20041;-66
2022/04/24 08:13:36;;;;;;;4.65;2.40;;;7.50;99.90;;;;;;5057380;28;20052;-67
2022/04/24 08:16:03;;;;;;;7.20;1.98;;;7.60;99.90;;;;;;5041169;28;20075;-68
2022/04/24 08:18:30;;;;;;;2.45;1.98;;;7.60;99.90;;;;;;5043498;28;20040;-64
2022/04/24 08:20:57;;;;;;;1.75;1.30;;;7.60;99.90;;;;;;5054365;28;20442;-64
2022/04/24 08:23:25;;;;;;;5.43;1.73;;;7.60;99.90;;;;;;5041854;28;20630;-64
2022/04/24 08:25:53;;;;;;;8.00;1.77;;;7.50;99.90;;;;;;5044693;28;20067;-65
2022/04/24 08:28:21;;;;;;;8.60;2.63;;;7.50;99.90;;;;;;5047067;28;20056;-67
2022/04/24 08:30:48;;;;;;;11.25;1.55;;;7.50;99.90;;;;;;5044757;28;20045;-67
2022/04/24 08:33:17;;;;;;;6.80;1.88;;;7.60;99.90;;;;;;5021116;28;20472;-67
2022/04/24 08:35:45;;;;;;;13.95;2.67;;;7.60;99.90;;;;;;5041498;28;20033;-64
2022/04/24 08:38:12;;;;;;;10.50;2.72;;;7.60;99.90;;;;;;5034577;28;20041;-66
2022/04/24 08:40:39;;;;;;;3.67;1.42;;;7.70;99.90;;;;;;5034798;28;20072;-71
2022/04/24 08:43:06;;;;;;;3.88;1.55;;;7.80;99.90;;;;;;5029505;28;20033;-65
2022/04/24 08:45:34;;;;;;;5.78;1.75;;;7.80;99.90;;;;;;5030820;28;20106;-71
2022/04/24 08:48:04;;;;;;;4.78;1.60;;;7.90;99.90;;;;;;5029212;28;20101;-69
2022/04/24 08:50:32;;;;;;;6.72;2.08;;;8.00;99.90;;;;;;5037129;28;20808;-65
2022/04/24 08:53:00;;;;;;;6.80;3.83;;;8.10;99.90;;;;;;5037911;28;20041;-71
2022/04/24 08:55:29;;;;;;;6.50;2.03;;;8.10;99.90;;;;;;5039997;28;20155;-65
2022/04/24 08:57:56;;;;;;;2.88;2.40;;;7.90;99.90;;;;;;5032436;28;20666;-68
2022/04/24 09:00:24;;;;;;;6.43;1.75;;;7.80;99.90;;;;;;5031092;28;20049;-66
2022/04/24 09:02:51;;;;;;;3.35;1.70;;;7.70;99.90;;;;;;5033140;28;20374;-65
2022/04/24 09:05:20;;;;;;;2.90;1.73;;;7.50;99.90;;;;;;5035870;28;20036;-67
2022/04/24 09:07:48;;;;;;;2.80;2.05;;;7.40;99.90;;;;;;5031649;28;20754;-66
2022/04/24 09:10:54;;;;;;;3.10;1.40;;;7.30;99.90;;;;;;5031780;28;20056;-67
2022/04/24 09:13:32;;;;;;;9.57;2.58;;;7.20;99.90;;;;;;5029971;28;20041;-65
2022/04/24 09:16:02;;;;;;;3.53;2.65;;;7.10;99.90;;;;;;5037621;28;20061;-68
2022/04/24 09:18:40;;;;;;;6.55;2.40;;;7.10;99.90;;;;;;5035393;28;20076;-65
2022/04/24 09:21:10;;;;;;;5.05;1.77;;;7.10;99.90;;;;;;5039159;28;20067;-70
2022/04/24 09:23:38;;;;;;;4.80;1.77;;;7.10;99.90;;;;;;5039125;28;20087;-64
2022/04/24 09:26:05;;;;;;;4.07;2.40;;;7.10;99.90;;;;;;5032036;28;20092;-66
2022/04/24 09:28:39;;;;;;;7.18;1.98;;;7.10;99.90;;;;;;5028450;28;20060;-72
2022/04/24 09:31:06;;;;;;;7.00;1.77;;;7.20;99.90;;;;;;5025279;28;20140;-65
2022/04/24 09:33:41;;;;;;;5.60;1.85;;;7.30;99.90;;;;;;5055524;28;20146;-67
2022/04/24 09:36:10;;;;;;;5.47;2.05;;;7.20;99.90;;;;;;5036368;28;20095;-65
2022/04/24 09:38:46;;;;;;;6.80;2.60;;;7.10;99.90;;;;;;5031722;28;20064;-64
2022/04/24 09:41:22;;;;;;;4.53;2.08;;;7.00;99.90;;;;;;5027026;28;20042;-65
2022/04/24 09:43:49;;;;;;;4.03;3.08;;;7.10;99.90;;;;;;5039649;28;20827;-69
2022/04/24 09:46:29;;;;;;;7.15;2.22;;;7.10;99.90;;;;;;5026994;28;20077;-67
2022/04/24 09:49:01;;;;;;;5.68;2.00;;;7.10;99.90;;;;;;5033794;28;20128;-67
2022/04/24 09:51:28;;;;;;;6.88;2.17;;;7.00;99.90;;;;;;5034587;28;20053;-66
2022/04/24 09:54:00;;;;;;;3.30;1.83;;;7.10;99.90;;;;;;5036091;28;20086;-66
2022/04/24 09:56:28;;;;;;;8.00;2.03;;;7.10;99.90;;;;;;5029112;28;20120;-65
2022/04/24 09:58:57;;;;;;;3.67;2.08;;;7.10;99.90;;;;;;5038783;28;20812;-68
2022/04/24 10:01:26;;;;;;;6.13;2.40;;;7.00;99.90;;;;;;5038380;28;20080;-65
2022/04/24 10:03:55;;;;;;;4.93;2.03;;;7.00;99.90;;;;;;5039838;28;20450;-65
2022/04/24 10:06:23;;;;;;;7.07;4.00;;;7.00;99.90;;;;;;5039489;28;20063;-68
2022/04/24 10:08:51;;;;;;;14.95;2.10;;;7.00;99.90;;;;;;5043190;28;20077;-65
2022/04/24 10:11:19;;;;;;;5.88;2.20;;;7.00;99.90;;;;;;5042540;28;20087;-67
2022/04/24 10:13:48;;;;;;;3.90;2.10;;;7.10;99.90;;;;;;5038627;28;20136;-65
2022/04/24 10:16:51;;;;;;;9.10;2.13;;;7.20;99.90;;;;;;5033516;28;20096;-69
2022/04/24 10:19:51;;;;;;;13.63;2.65;;;7.40;99.90;;;;;;5021455;28;20413;-69
2022/04/24 10:22:38;;;;;;;6.07;1.92;;;7.30;99.90;;;;;;5017358;28;20128;-69
2022/04/24 10:25:07;;;;;;;4.05;1.80;;;7.20;99.90;;;;;;5042791;28;20468;-69
2022/04/24 10:27:45;;;;;;;5.80;2.42;;;7.10;99.90;;;;;;5040119;28;20056;-66
2022/04/24 10:30:23;;;;;;;4.07;1.50;;;7.20;99.90;;;;;;5031370;28;20053;-65
2022/04/24 10:33:15;;;;;;;4.45;2.17;;;7.30;99.90;;;;;;5034823;28;20052;-67
2022/04/24 10:35:53;;;;;;;4.20;2.17;;;7.30;99.90;;;;;;5029508;28;20395;-64
2022/04/24 10:38:24;;;;;;;2.45;1.83;;;7.30;99.90;;;;;;5034677;28;20038;-68
2022/04/24 10:41:01;;;;;;;5.35;1.75;;;7.30;99.90;;;;;;5035791;28;20690;-67
2022/04/24 10:43:35;;;;;;;8.77;2.88;;;7.20;99.90;;;;;;5039548;28;20048;-67
2022/04/24 10:46:02;;;;;;;4.68;2.38;;;7.10;99.90;;;;;;5032617;28;20052;-68
2022/04/24 10:48:35;;;;;;;6.65;2.05;;;7.00;99.90;;;;;;5033245;28;20658;-65
2022/04/24 10:51:02;;;;;;;9.15;2.10;;;7.00;99.90;;;;;;5032618;28;20196;-67
2022/04/24 10:54:11;;;;;;;8.70;2.30;;;7.10;99.90;;;;;;5035399;28;20416;-63
2022/04/24 10:56:41;;;;;;;6.50;3.05;;;7.20;99.90;;;;;;5034669;28;20036;-65
2022/04/24 10:59:17;;;;;;;5.68;1.58;;;7.10;99.90;;;;;;5036609;28;20064;-65
2022/04/24 11:01:47;;;;;;;3.60;1.42;;;7.10;99.90;;;;;;5039956;28;20063;-64
2022/04/24 11:04:16;;;;;;;8.18;2.03;;;7.00;99.90;;;;;;5036443;28;20175;-70
2022/04/24 11:07:00;;;;;;;4.57;1.85;;;7.00;99.90;;;;;;5030765;28;20130;-65
2022/04/24 11:09:33;;;;;;;6.38;3.00;;;7.00;99.90;;;;;;5040386;28;20123;-67
2022/04/24 11:12:01;;;;;;;7.15;2.47;;;7.00;99.90;;;;;;5033179;28;20065;-71
2022/04/24 11:14:29;;;;;;;14.57;3.00;;;7.00;99.90;;;;;;5028304;28;20060;-65
2022/04/24 11:16:58;;;;;;;8.77;3.22;;;7.10;99.90;;;;;;5037246;28;20096;-65
2022/04/24 11:19:38;;;;;;;3.30;2.60;;;7.10;99.90;;;;;;5035491;28;20049;-66
2022/04/24 11:22:11;;;;;;;5.00;2.20;;;7.10;99.90;;;;;;5031891;28;20102;-69
2022/04/24 11:24:40;;;;;;;5.60;2.47;;;7.00;99.90;;;;;;5033982;28;20414;-65
2022/04/24 11:27:12;;;;;;;4.20;2.00;;;7.10;99.90;;;;;;5038088;28;20089;-65
2022/04/24 11:29:42;;;;;;;4.63;2.53;;;7.00;99.90;;;;;;5033879;28;20111;-64
2022/04/24 11:32:09;;;;;;;4.60;1.60;;;7.00;99.90;;;;;;5036645;28;20076;-63
2022/04/24 11:34:37;;;;;;;13.13;2.53;;;6.90;99.90;;;;;;5049077;28;20087;-70
2022/04/24 11:37:05;;;;;;;4.30;1.85;;;7.00;99.90;;;;;;5030767;28;20190;-66
2022/04/24 11:39:32;;;;;;;4.90;2.30;;;6.90;99.90;;;;;;5034927;28;20132;-66
2022/04/24 11:41:59;;;;;;;6.50;2.42;;;7.00;99.90;;;;;;5035814;28;20041;-67
2022/04/24 11:50:13;;;;;;;3.60;2.30;;;7.10;99.90;;;;;;5031717;28;20045;-66
2022/04/24 11:53:00;;;;;;;5.22;1.60;;;7.10;99.90;;;;;;5028644;28;20045;-72
2022/04/24 11:56:01;;;;;;;13.80;3.10;;;7.00;99.90;;;;;;5037949;28;20037;-65
2022/04/24 11:58:16;;;;;;;3.70;1.48;;;7.00;99.90;;;;;;5035192;28;20794;-68
2022/04/24 12:00:45;;;;;;;3.17;1.70;;;7.00;99.90;;;;;;5034719;28;20065;-70
2022/04/24 12:03:14;;;;;;;6.97;2.60;;;7.00;99.90;;;;;;5035927;28;20157;-64
2022/04/24 12:05:43;;;;;;;3.28;1.92;;;7.00;99.90;;;;;;5038564;28;20041;-70
2022/04/24 12:08:12;;;;;;;3.33;1.85;;;7.00;99.90;;;;;;5024639;28;20063;-73
2022/04/24 12:10:45;;;;;;;8.80;3.20;;;7.10;99.90;;;;;;5038518;28;20619;-64
2022/04/24 12:13:13;;;;;;;4.40;1.60;;;7.10;99.90;;;;;;5034896;28;20517;-65
2022/04/24 12:15:50;;;;;;;4.55;2.20;;;6.90;99.90;;;;;;5036602;28;20049;-69
2022/04/24 12:18:22;;;;;;;7.70;1.73;;;6.90;99.90;;;;;;5039536;28;20579;-64
2022/04/24 12:20:50;;;;;;;4.38;1.58;;;6.80;99.90;;;;;;5038798;28;20068;-70
2022/04/24 12:23:18;;;;;;;3.83;1.70;;;6.80;99.90;;;;;;5040914;28;20064;-65
2022/04/24 12:25:56;;;;;;;4.18;1.50;;;6.80;99.90;;;;;;5039397;28;20041;-67
2022/04/24 12:28:29;;;;;;;5.97;1.67;;;6.80;99.90;;;;;;5027159;28;20095;-64
2022/04/24 12:30:57;;;;;;;4.95;2.75;;;6.90;99.90;;;;;;5030171;28;20135;-67
2022/04/24 12:33:24;;;;;;;3.17;1.38;;;6.90;99.90;;;;;;5031885;28;20045;-64
2022/04/24 12:35:51;;;;;;;8.65;2.72;;;6.90;99.90;;;;;;5031783;28;20069;-66
2022/04/24 12:38:21;;;;;;;7.53;1.60;;;7.00;99.90;;;;;;5036568;28;20029;-64
2022/04/24 12:40:59;;;;;;;4.40;1.90;;;7.00;99.90;;;;;;5031420;28;20037;-69
2022/04/24 12:43:31;;;;;;;7.15;1.90;;;7.00;99.90;;;;;;5025584;28;20085;-65
2022/04/24 12:45:58;;;;;;;9.63;2.35;;;6.90;99.90;;;;;;5034101;28;20049;-68
2022/04/24 12:48:26;;;;;;;2.38;1.10;;;6.90;99.90;;;;;;5037743;28;20068;-64
2022/04/24 12:50:54;;;;;;;8.13;1.77;;;6.90;99.90;;;;;;5035813;28;20053;-66
2022/04/24 12:53:22;;;;;;;3.22;1.88;;;6.90;99.90;;;;;;5042415;28;20052;-69
2022/04/24 12:55:51;;;;;;;4.95;1.63;;;6.90;99.90;;;;;;5037680;28;20175;-70
2022/04/24 12:58:19;;;;;;;3.38;1.45;;;6.90;99.90;;;;;;5040117;28;20691;-72
2022/04/24 13:00:47;;;;;;;3.13;2.17;;;6.90;99.90;;;;;;5043361;28;20132;-64
2022/04/24 13:03:14;;;;;;;2.83;1.60;;;6.80;99.90;;;;;;5040436;28;20263;-66
2022/04/24 13:05:44;;;;;;;2.85;1.85;;;6.90;99.90;;;;;;5037019;28;20037;-64
2022/04/24 13:08:26;;;;;;;1.60;0.85;;;6.80;99.90;;;;;;5031275;28;20119;-69
2022/04/24 13:10:53;;;;;;;3.00;1.25;;;6.80;99.90;;;;;;5038386;28;20041;-69
2022/04/24 13:13:20;;;;;;;2.90;1.42;;;6.80;99.90;;;;;;5034433;28;20052;-64
2022/04/24 13:18:07;;;;;;;4.20;1.20;;;6.80;99.90;;;;;;5035235;28;20079;-64